Meteo Giornale » Osservazioni meteo Italia » Resia Pass

ore: 16:55 - Osservazioni Meteo Resia Pass
Lat. 46° 50' N Lon. 10° 30' E Alt. 1800 metri s.l.m.

sereno Europe/Rome

-7 °C

Sereno

Temp. 24 Ore

-10 °C

-3 °C

Nord

9.3 Km/h

Dew point -12 °C

Umidità 67 %

Visibilità  10 Km

Il sole sorge alle ore 07:52

Il sole tramonta alle ore 16:31

Data e Ora Cielo e Fenomeni T °C DP °C Um. % Pres. hPa Vis. km Vento km/h
Oggi h: 16:55 sereno Sereno -7 -12 67 1014 10 N 9.3
Oggi h: 15:55 sereno Sereno -6 -12 62 1014 10 N 9.3
Oggi h: 14:55 sereno Sereno -3 -15 38 1014 10 N 13
Oggi h: 13:55 sereno Sereno -3 -15 38 1014 10 N/NE 16.7
Oggi h: 12:55 sereno Sereno -4 -15 41 1015 10 N 14.8
Oggi h: 11:55 sereno Sereno -4 -14 45 1016 10 N 14.8
Oggi h: 10:55 sereno Sereno -5 -14 49 1017 10 N/NE 14.8
Oggi h: 09:55 sereno Sereno -9 -14 66 1017 10 N/NE 16.7
Oggi h: 08:55 sereno Sereno -10 -14 72 1017 10 N/NE 9.3
Oggi h: 06:55 sereno Sereno -10 -14 72 1016 10 N/NE 9.3
Oggi h: 05:55 sereno Sereno -10 -13 78 1017 10 N/NE 9.3
Oggi h: 04:55 sereno Sereno -10 -13 78 1016 10 N/NE 9.3
Oggi h: 03:55 sereno Sereno -9 -12 78 1017 10 N 5.5
Oggi h: 02:55 sereno Sereno -9 -12 78 1017 10 N 7.4
Oggi h: 01:55 sereno Sereno -9 -10 92 1017 10 N/NE 7.4
Oggi h: 00:55 sereno Sereno -9 -10 92 1017 10 N 5.5
Ieri h: 23:55 sereno Sereno -9 -12 78 1017 10 N 7.4
Ieri h: 22:55 sereno Sereno -8 -11 78 1017 10 N 7.4
Ieri h: 21:55 sereno Sereno -7 -11 73 1017 10 N 5.5
Ieri h: 20:55 sereno Sereno -7 -10 79 1017 10 N 7.4
Ieri h: 19:55 sereno Sereno -7 -10 79 1017 10 N 5.5
Ieri h: 18:55 sereno Sereno -6 -11 67 1017 10 N/NE 7.4
Ieri h: 17:55 poco_nuvoloso Poco Nuvoloso -6 -12 62 1017 10 N 5.5